Gunnison, CO

10:27 PM MDT on October 19, 2014 (GMT -0600)
Taylor St. | Change Station
CLOSE
Current Station
Personal Weather Station
Location: Gunnison, CO
Elevation: 7687 ft
Nearby Weather Stations

Elev 7687 ft 38.54 °N, 106.92 °W | Updated 5 minutes ago

Overcast
Overcast
47.1 °F
Feels Like 45 °F
N
5.3
Wind Variable Wind from North

Today
High -- | Low -- °F
--% Chance of Precip.
Yesterday
High -- | Low -- °F
Precip. -- in
7:20 AM 6:23 PM
Waning Crescent, 13% visible
Pressure 30.28 in
Visibility 10.0 miles
Clouds Overcast 8000 ft
Windchill 45 °F
Dew Point 46 °F
Humidity 96%
Rainfall 0.00 in
Snow Depth Not available.
UV 0 out of 12
Pollen 1.60 out of 12
Air Quality Not available.
Flu Activity Sporadic
METAR KGUC 200315Z AUTO 01004KT 10SM OVC080 09/M01 A3028 RMK AO1

More Conditions Fewer Conditions

Pressure 30.28 in
Visibility 10.0 miles
Clouds Overcast 8000 ft
Windchill 45 °F
Dew Point 46 °F
Humidity 96%
Rainfall 0.00 in
Snow Depth Not available.
UV 0 out of 12
Pollen 1.60 out of 12
Air Quality Not available.
Flu Activity Sporadic
METAR KGUC 200315Z AUTO 01004KT 10SM OVC080 09/M01 A3028 RMK AO1

More Conditions Fewer Conditions

10-Day Weather Forecast

Almanac

Astronomy

Oct. 19, 2014 Rise Set
Actual Time 7:20 AM MDT 6:23 PM MDT
Civil Twilight 6:54 AM MDT 6:50 PM MDT
Nautical Twilight 6:23 AM MDT 7:21 PM MDT
Astronomical Twilight 5:52 AM MDT 7:52 PM MDT
Moon 3:19 AM MDT (10/19) 4:14 PM MDT (10/19)
Length of Visible Light 11h 56m
Length of Day
11h 03m
Waning Crescent, 13% of the Moon is Illuminated
Oct 20
Waning Crescent
Oct 23
New
Oct 30
First Quarter
Nov 6
Full
Nov 14
Last Quarter

Yesterday's Extremes

State Highs State Lows

Community

WunderPhotos

Upload Photos

1,763,294 photos uploaded!

Nearby

Snow Depth

Station Depth Elevation
Park Cone 0 in 9600 ft
Cochetopa Pass 0 in 10020 ft
Schofield Pass 0 in 10700 ft
North Lost Trail 0 in 9200 ft
Independence Pass 0 in 10600 ft

Earthquake Activity

City Distance Mag. Time & Date
No recent earthquake activity has been reported nearby.
Minimum magnitude displayed is 2.5.

Coastal Water Temperatures

Place Temperature
No Stations Reporting

Nearby Weather Stations